createdAt,value
2023-10-29T00:02:19.545Z,97759.19
2023-10-29T00:04:53.379Z,97752.34
2023-10-29T00:07:22.722Z,97753.50
2023-10-29T00:09:26.119Z,97741.75
2023-10-29T00:11:31.650Z,97747.44
2023-10-29T00:13:35.703Z,97745.81
2023-10-29T00:16:23.094Z,97727.00
2023-10-29T00:20:59.096Z,97728.09
2023-10-29T00:23:04.793Z,97727.28
2023-10-29T00:25:09.598Z,97742.38
2023-10-29T00:27:14.579Z,97734.50
2023-10-29T00:29:18.030Z,97732.59
2023-10-29T00:31:22.033Z,97731.38
2023-10-29T00:33:27.735Z,97725.06
2023-10-29T00:35:32.850Z,97721.34
2023-10-29T00:37:40.244Z,97714.34
2023-10-29T00:39:45.883Z,97734.59
2023-10-29T00:41:51.587Z,97746.16
2023-10-29T00:43:55.190Z,97733.72
2023-10-29T00:45:58.758Z,97741.53
2023-10-29T00:50:32.519Z,97729.91
2023-10-29T00:52:38.025Z,97710.28
2023-10-29T00:54:56.553Z,97704.31
2023-10-29T00:57:00.158Z,97710.84
2023-10-29T00:59:26.486Z,97701.88
2023-10-29T01:01:29.858Z,97677.50
2023-10-29T01:03:32.484Z,97693.81
2023-10-29T01:06:17.284Z,97674.66
2023-10-29T01:09:09.121Z,97676.81
2023-10-29T01:11:32.547Z,97680.91
2023-10-29T01:13:50.097Z,97684.66
2023-10-29T01:15:57.558Z,97687.16
2023-10-29T01:18:18.012Z,97696.78
2023-10-29T01:21:01.661Z,97692.00
2023-10-29T01:26:07.847Z,97697.31
2023-10-29T01:28:22.181Z,97690.81
2023-10-29T01:30:41.200Z,97703.13
2023-10-29T01:35:36.417Z,97676.41
2023-10-29T01:37:54.506Z,97671.59
2023-10-29T01:40:00.650Z,97672.88
2023-10-29T01:42:03.547Z,97675.53
2023-10-29T01:44:08.848Z,97673.13
2023-10-29T01:46:13.968Z,97671.78
2023-10-29T01:48:17.618Z,97673.09
2023-10-29T01:50:20.511Z,97686.91
2023-10-29T01:52:22.397Z,97671.69
2023-10-29T01:54:25.203Z,97669.72
2023-10-29T01:56:27.954Z,97679.13
2023-10-29T01:58:30.766Z,97668.31
2023-10-29T02:00:35.122Z,97655.75
2023-10-29T02:02:38.230Z,97652.38
2023-10-29T02:04:41.559Z,97635.84
2023-10-29T02:06:44.495Z,97636.19
2023-10-29T02:08:50.043Z,97634.63
2023-10-29T02:10:52.876Z,97629.00
2023-10-29T02:12:55.721Z,97628.72
2023-10-29T02:14:58.959Z,97635.13
2023-10-29T02:17:02.512Z,97624.25
2023-10-29T02:19:05.595Z,97631.78
2023-10-29T02:21:08.914Z,97621.34
2023-10-29T02:23:12.556Z,97622.03
2023-10-29T02:25:15.918Z,97621.56
2023-10-29T02:27:17.991Z,97610.94
2023-10-29T02:29:21.014Z,97619.72
2023-10-29T02:31:24.257Z,97625.53
2023-10-29T02:33:27.437Z,97620.53
2023-10-29T02:35:30.280Z,97621.47
2023-10-29T02:37:34.032Z,97615.69
2023-10-29T02:39:37.311Z,97615.34
2023-10-29T02:41:40.095Z,97602.28
2023-10-29T02:43:43.089Z,97602.88
2023-10-29T02:45:46.179Z,97621.72
2023-10-29T02:47:49.188Z,97614.28
2023-10-29T02:50:46.614Z,97590.97
2023-10-29T02:53:12.780Z,97580.03
2023-10-29T02:56:09.929Z,97589.91
2023-10-29T03:06:26.966Z,97561.97
2023-10-29T03:08:59.429Z,97573.69
2023-10-29T03:11:32.927Z,97561.16
2023-10-29T03:16:24.415Z,97541.78
2023-10-29T03:18:43.434Z,97534.25
2023-10-29T03:24:04.031Z,97532.16
2023-10-29T03:28:33.228Z,97498.63
2023-10-29T03:31:03.516Z,97509.91
2023-10-29T03:33:20.525Z,97522.03
2023-10-29T03:36:04.942Z,97536.03
2023-10-29T03:43:44.995Z,97559.88
2023-10-29T03:45:46.950Z,97549.31
2023-10-29T03:47:49.992Z,97534.38
2023-10-29T03:49:53.168Z,97544.22
2023-10-29T03:51:56.102Z,97545.19
2023-10-29T03:53:58.067Z,97526.03
2023-10-29T03:56:02.022Z,97521.75
2023-10-29T03:58:05.453Z,97521.53
2023-10-29T04:00:12.029Z,97520.00
2023-10-29T04:02:14.986Z,97512.31
2023-10-29T04:04:17.934Z,97518.81
2023-10-29T04:06:21.096Z,97496.13
2023-10-29T04:08:24.542Z,97505.84
2023-10-29T04:10:26.502Z,97510.41
2023-10-29T04:12:29.499Z,97527.50
2023-10-29T04:14:32.539Z,97550.69
2023-10-29T04:16:37.311Z,97541.22
2023-10-29T04:18:40.408Z,97555.94
2023-10-29T04:20:43.517Z,97561.41
2023-10-29T04:22:46.571Z,97569.59
2023-10-29T04:24:48.831Z,97545.03
2023-10-29T04:26:52.489Z,97525.53
2023-10-29T04:28:55.779Z,97498.22
2023-10-29T04:30:59.038Z,97489.75
2023-10-29T04:33:03.646Z,97493.59
2023-10-29T04:35:07.688Z,97493.66
2023-10-29T04:37:10.700Z,97527.84
2023-10-29T04:39:13.895Z,97517.41
2023-10-29T04:41:17.217Z,97533.75
2023-10-29T04:43:20.105Z,97529.47
2023-10-29T04:45:23.416Z,97527.28
2023-10-29T04:47:26.429Z,97549.91
2023-10-29T04:49:31.075Z,97554.34
2023-10-29T05:00:57.156Z,97574.53
2023-10-29T05:03:00.510Z,97576.50
2023-10-29T05:05:11.855Z,97573.84
2023-10-29T05:07:16.254Z,97579.97
2023-10-29T05:09:19.807Z,97589.88
2023-10-29T05:11:23.016Z,97592.63
2023-10-29T05:13:31.408Z,97609.38
2023-10-29T05:15:35.000Z,97613.19
2023-10-29T05:17:39.374Z,97601.19
2023-10-29T05:19:42.209Z,97589.66
2023-10-29T05:21:46.517Z,97595.75
2023-10-29T05:23:49.170Z,97612.28
2023-10-29T05:25:52.241Z,97604.75
2023-10-29T05:27:56.887Z,97610.13
2023-10-29T05:32:35.467Z,97584.38
2023-10-29T05:34:44.384Z,97582.31
2023-10-29T05:42:42.624Z,97607.38
2023-10-29T05:44:45.548Z,97593.03
2023-10-29T05:46:48.988Z,97580.34
2023-10-29T05:48:51.974Z,97596.59
2023-10-29T05:50:55.001Z,97599.19
2023-10-29T05:52:57.715Z,97611.94
2023-10-29T05:55:02.910Z,97604.84
2023-10-29T05:57:06.246Z,97609.75
2023-10-29T05:59:09.005Z,97603.19
2023-10-29T06:01:13.222Z,97615.97
2023-10-29T06:03:16.190Z,97608.88
2023-10-29T06:05:19.068Z,97607.59
2023-10-29T06:07:21.769Z,97611.09
2023-10-29T06:09:24.913Z,97618.50
2023-10-29T06:11:29.181Z,97614.75
2023-10-29T06:13:30.963Z,97614.41
2023-10-29T06:15:33.821Z,97608.44
2023-10-29T06:17:36.736Z,97617.00
2023-10-29T06:19:39.897Z,97630.09
2023-10-29T06:21:42.757Z,97613.88
2023-10-29T06:23:46.312Z,97641.44
2023-10-29T06:25:49.144Z,97641.44
2023-10-29T06:27:53.504Z,97656.75
2023-10-29T06:29:55.678Z,97660.97
2023-10-29T06:31:58.984Z,97665.63
2023-10-29T06:34:02.162Z,97675.09
2023-10-29T06:36:06.027Z,97680.09
2023-10-29T06:38:09.252Z,97669.44
2023-10-29T06:40:11.495Z,97676.00
2023-10-29T06:42:14.333Z,97683.13
2023-10-29T06:44:17.349Z,97690.94
2023-10-29T06:46:20.643Z,97690.69
2023-10-29T06:48:24.214Z,97686.88
2023-10-29T06:50:27.086Z,97684.88
2023-10-29T06:52:29.709Z,97662.09
2023-10-29T06:54:32.570Z,97666.97
2023-10-29T06:56:35.943Z,97666.06
2023-10-29T06:58:50.412Z,97686.03
2023-10-29T07:04:34.765Z,97720.09
2023-10-29T07:07:01.150Z,97719.31
2023-10-29T07:09:25.674Z,97729.84
2023-10-29T07:11:32.084Z,97721.00
2023-10-29T07:13:45.113Z,97734.81
2023-10-29T07:19:15.358Z,97721.91
2023-10-29T07:21:44.005Z,97715.44
2023-10-29T07:24:28.244Z,97728.09
2023-10-29T07:27:03.983Z,97718.75
2023-10-29T07:32:03.829Z,97740.88
2023-10-29T07:35:10.376Z,97747.63
2023-10-29T07:37:20.821Z,97744.72
2023-10-29T07:39:41.049Z,97761.53
2023-10-29T07:42:10.983Z,97766.97
2023-10-29T07:44:31.202Z,97780.91
2023-10-29T07:46:39.998Z,97778.44
2023-10-29T07:49:18.964Z,97782.69
2023-10-29T07:51:46.283Z,97776.34
2023-10-29T07:54:42.454Z,97772.84
2023-10-29T07:56:57.632Z,97760.13
2023-10-29T07:59:50.973Z,97773.00
2023-10-29T08:04:49.565Z,97772.44
2023-10-29T08:07:10.092Z,97782.97
2023-10-29T08:09:14.677Z,97780.09
2023-10-29T08:11:20.784Z,97785.19
2023-10-29T08:13:23.452Z,97786.06
2023-10-29T08:15:32.234Z,97803.63
2023-10-29T08:17:54.533Z,97813.03
2023-10-29T08:22:56.174Z,97828.25
2023-10-29T08:26:08.680Z,97823.41
2023-10-29T08:36:11.402Z,97801.69
2023-10-29T08:38:14.204Z,97795.41
2023-10-29T08:40:18.362Z,97801.81
2023-10-29T08:42:19.990Z,97804.38
2023-10-29T08:44:23.113Z,97835.53
2023-10-29T08:46:25.873Z,97822.63
2023-10-29T08:48:28.674Z,97834.66
2023-10-29T08:50:30.409Z,97839.53
2023-10-29T08:52:33.010Z,97843.25
2023-10-29T08:54:38.208Z,97834.78
2023-10-29T08:56:42.850Z,97836.91
2023-10-29T08:58:45.891Z,97851.53
2023-10-29T09:00:48.983Z,97858.19
2023-10-29T09:02:51.980Z,97855.28
2023-10-29T09:04:58.765Z,97851.47
2023-10-29T09:07:01.556Z,97846.66
2023-10-29T09:09:05.202Z,97846.84
2023-10-29T09:11:15.675Z,97846.28
2023-10-29T09:13:23.102Z,97841.94
2023-10-29T09:15:26.426Z,97854.81
2023-10-29T09:17:29.901Z,97864.59
2023-10-29T09:19:33.911Z,97864.75
2023-10-29T09:21:37.063Z,97865.22
2023-10-29T09:23:39.751Z,97868.94
2023-10-29T09:25:43.916Z,97881.31
2023-10-29T09:27:48.399Z,97874.00
2023-10-29T09:29:52.555Z,97866.53
2023-10-29T09:31:55.173Z,97862.59
2023-10-29T09:33:57.781Z,97864.06
2023-10-29T09:36:01.469Z,97845.50
2023-10-29T09:38:19.694Z,97832.44
2023-10-29T09:40:29.927Z,97844.78
2023-10-29T09:42:54.931Z,97860.72
2023-10-29T09:45:29.918Z,97873.88
2023-10-29T09:47:51.643Z,97853.25
2023-10-29T09:49:57.294Z,97868.47
2023-10-29T09:52:29.194Z,97855.66
2023-10-29T09:54:32.428Z,97853.41
2023-10-29T09:59:02.088Z,97871.00
2023-10-29T10:01:15.405Z,97874.34
2023-10-29T10:03:19.107Z,97876.09
2023-10-29T10:05:29.897Z,97874.16
2023-10-29T10:07:34.941Z,97877.13
2023-10-29T10:09:54.836Z,97881.19
2023-10-29T10:12:08.828Z,97866.28
2023-10-29T10:14:27.449Z,97854.00
2023-10-29T10:16:31.700Z,97866.28
2023-10-29T10:18:51.935Z,97848.28
2023-10-29T10:20:59.965Z,97852.22
2023-10-29T10:23:07.350Z,97868.47
2023-10-29T10:25:24.862Z,97854.88
2023-10-29T10:27:29.177Z,97860.75
2023-10-29T10:29:36.796Z,97854.25
2023-10-29T10:32:05.518Z,97866.34
2023-10-29T10:34:17.083Z,97865.19
2023-10-29T10:36:37.752Z,97857.06
2023-10-29T10:39:11.915Z,97861.88
2023-10-29T10:41:16.070Z,97851.22
2023-10-29T10:43:22.201Z,97834.47
2023-10-29T10:45:36.030Z,97817.78
2023-10-29T10:47:46.648Z,97830.25
2023-10-29T10:50:25.710Z,97838.34
2023-10-29T10:52:47.179Z,97838.47
2023-10-29T10:54:57.823Z,97845.66
2023-10-29T10:57:05.003Z,97840.66
2023-10-29T10:59:37.100Z,97846.66
2023-10-29T11:02:01.023Z,97831.97
2023-10-29T11:04:42.827Z,97817.69
2023-10-29T11:07:14.093Z,97814.63
2023-10-29T11:09:18.580Z,97806.28
2023-10-29T11:11:23.206Z,97820.59
2023-10-29T11:13:27.645Z,97816.00
2023-10-29T11:15:30.839Z,97825.38
2023-10-29T11:17:58.540Z,97825.13
2023-10-29T11:20:02.671Z,97817.84
2023-10-29T11:22:14.629Z,97820.34
2023-10-29T11:24:18.557Z,97801.78
2023-10-29T11:26:25.821Z,97789.31
2023-10-29T11:28:44.060Z,97786.81
2023-10-29T11:31:13.321Z,97800.56
2023-10-29T11:33:18.456Z,97792.09
2023-10-29T11:35:23.937Z,97787.34
2023-10-29T11:37:40.390Z,97792.63
2023-10-29T11:39:44.828Z,97795.22
2023-10-29T11:41:47.523Z,97801.34
2023-10-29T11:44:23.868Z,97801.84
2023-10-29T11:46:26.809Z,97812.00
2023-10-29T11:48:32.586Z,97830.81
2023-10-29T11:50:36.795Z,97797.06
2023-10-29T11:52:45.728Z,97809.41
2023-10-29T11:54:50.827Z,97808.22
2023-10-29T11:56:53.626Z,97831.28
2023-10-29T11:59:06.784Z,97833.53
2023-10-29T12:01:10.053Z,97835.56
2023-10-29T12:03:13.065Z,97834.03
2023-10-29T12:05:17.471Z,97835.09
2023-10-29T12:07:32.637Z,97830.69
2023-10-29T12:09:36.788Z,97832.53
2023-10-29T12:11:39.646Z,97821.44
2023-10-29T12:13:43.806Z,97805.00
2023-10-29T12:15:48.881Z,97796.16
2023-10-29T12:17:51.960Z,97798.19
2023-10-29T12:19:57.899Z,97818.28
2023-10-29T12:24:39.416Z,97806.22
2023-10-29T12:26:43.900Z,97805.22
2023-10-29T12:28:48.191Z,97817.28
2023-10-29T12:31:03.044Z,97819.75
2023-10-29T12:33:20.020Z,97832.25
2023-10-29T12:35:56.138Z,97831.91
2023-10-29T12:40:19.218Z,97832.41
2023-10-29T12:42:47.900Z,97830.16
2023-10-29T12:45:09.955Z,97854.56
2023-10-29T12:47:50.594Z,97848.97
2023-10-29T12:50:10.448Z,97844.19
2023-10-29T12:52:28.925Z,97851.28
2023-10-29T12:54:31.979Z,97857.06
2023-10-29T12:56:49.547Z,97843.56
2023-10-29T12:58:53.147Z,97817.94
2023-10-29T13:03:46.684Z,97755.13
2023-10-29T13:05:52.215Z,97775.47
2023-10-29T13:08:00.099Z,97752.84
2023-10-29T13:12:30.272Z,97775.13
2023-10-29T13:14:44.424Z,97764.66
2023-10-29T13:16:57.549Z,97767.13
2023-10-29T13:19:08.187Z,97769.84
2023-10-29T13:52:45.555Z,97676.59
2023-10-29T13:55:19.638Z,97677.47
2023-10-29T13:57:43.331Z,97666.22
2023-10-29T14:11:54.251Z,97675.13
2023-10-29T14:13:59.393Z,97692.22
2023-10-29T14:16:05.483Z,97695.66
2023-10-29T14:18:08.367Z,97701.31
2023-10-29T14:20:12.074Z,97700.75
2023-10-29T14:22:15.561Z,97695.56
2023-10-29T14:24:17.539Z,97680.91
2023-10-29T14:26:20.576Z,97688.38
2023-10-29T14:28:24.970Z,97713.53
2023-10-29T14:30:28.032Z,97725.72
2023-10-29T14:32:31.132Z,97723.75
2023-10-29T14:34:34.110Z,97700.97
2023-10-29T14:36:38.863Z,97715.25
2023-10-29T14:38:42.175Z,97737.41
2023-10-29T14:40:44.378Z,97753.75
2023-10-29T14:42:48.544Z,97751.13
2023-10-29T14:44:53.857Z,97755.25
2023-10-29T14:46:56.874Z,97759.59
2023-10-29T14:48:58.850Z,97723.84
2023-10-29T14:51:05.782Z,97726.44
2023-10-29T14:53:09.417Z,97734.91
2023-10-29T14:55:12.827Z,97750.59
2023-10-29T14:57:28.381Z,97770.56
2023-10-29T14:59:35.654Z,97756.41
2023-10-29T15:01:41.383Z,97750.81
2023-10-29T15:03:44.867Z,97745.88
2023-10-29T15:05:47.029Z,97734.78
2023-10-29T15:07:50.070Z,97751.56
2023-10-29T15:09:53.247Z,97761.13
2023-10-29T15:11:59.464Z,97739.00
2023-10-29T15:14:05.155Z,97739.13
2023-10-29T15:16:08.830Z,97764.84
2023-10-29T15:18:13.381Z,97772.88
2023-10-29T15:20:16.510Z,97785.16
2023-10-29T15:22:19.632Z,97783.50
2023-10-29T15:24:22.778Z,97783.16
2023-10-29T15:26:25.866Z,97791.13
2023-10-29T15:28:28.890Z,97783.97
2023-10-29T15:30:32.066Z,97785.72
2023-10-29T15:32:35.176Z,97791.06
2023-10-29T15:34:40.320Z,97778.47
2023-10-29T15:36:43.462Z,97747.88
2023-10-29T15:38:46.877Z,97770.78
2023-10-29T15:40:49.739Z,97777.97
2023-10-29T15:42:55.405Z,97781.78
2023-10-29T15:44:58.430Z,97810.22
2023-10-29T15:47:01.686Z,97797.88
2023-10-29T15:49:04.785Z,97804.78
2023-10-29T15:51:11.825Z,97809.31
2023-10-29T15:53:13.810Z,97836.63
2023-10-29T15:55:16.677Z,97838.31
2023-10-29T15:57:20.156Z,97833.63
2023-10-29T15:59:24.083Z,97811.78
2023-10-29T16:01:27.091Z,97792.06
2023-10-29T16:03:29.934Z,97815.38
2023-10-29T16:05:33.382Z,97804.75
2023-10-29T16:07:37.776Z,97817.78
2023-10-29T16:09:40.868Z,97818.81
2023-10-29T16:11:48.267Z,97820.56
2023-10-29T16:13:51.323Z,97820.78
2023-10-29T16:15:54.189Z,97821.59
2023-10-29T16:17:57.091Z,97822.72
2023-10-29T16:19:59.942Z,97819.50
2023-10-29T16:22:01.873Z,97826.47
2023-10-29T16:24:07.480Z,97828.31
2023-10-29T16:26:10.923Z,97825.25
2023-10-29T16:28:14.159Z,97820.88
2023-10-29T16:33:57.092Z,97830.63
2023-10-29T16:36:18.988Z,97834.63
2023-10-29T16:39:16.939Z,97817.78
2023-10-29T16:41:29.072Z,97832.66
2023-10-29T16:43:32.364Z,97843.00
2023-10-29T16:45:39.663Z,97829.25
2023-10-29T16:47:42.819Z,97833.53
2023-10-29T16:50:05.008Z,97832.66
2023-10-29T16:52:08.160Z,97841.31
2023-10-29T16:54:32.384Z,97841.22
2023-10-29T16:56:35.637Z,97847.50
2023-10-29T16:58:40.347Z,97853.47
2023-10-29T17:00:44.065Z,97846.00
2023-10-29T17:02:48.666Z,97859.63
2023-10-29T17:05:17.220Z,97871.88
2023-10-29T17:07:36.993Z,97851.00
2023-10-29T17:09:41.702Z,97859.81
2023-10-29T17:11:50.328Z,97865.72
2023-10-29T17:13:54.470Z,97868.72
2023-10-29T17:16:00.296Z,97876.88
2023-10-29T17:18:03.773Z,97884.94
2023-10-29T17:24:05.029Z,97901.53
2023-10-29T17:29:29.408Z,97921.19
2023-10-29T17:31:33.257Z,97910.75
2023-10-29T17:33:36.503Z,97910.94
2023-10-29T17:35:39.538Z,97904.28
2023-10-29T17:37:42.528Z,97916.97
2023-10-29T17:39:46.013Z,97923.78
2023-10-29T17:41:50.405Z,97926.81
2023-10-29T17:43:53.296Z,97931.13
2023-10-29T17:45:57.558Z,97926.56
2023-10-29T17:48:02.140Z,97927.19
2023-10-29T17:50:05.537Z,97928.69
2023-10-29T17:52:08.786Z,97941.50
2023-10-29T17:54:12.087Z,97944.84
2023-10-29T17:56:17.945Z,97942.03
2023-10-29T17:58:21.408Z,97933.00
2023-10-29T18:00:24.712Z,97943.22
2023-10-29T18:02:29.210Z,97946.34
2023-10-29T18:04:31.275Z,97950.38
2023-10-29T18:06:34.978Z,97947.47
2023-10-29T18:08:37.002Z,97956.72
2023-10-29T18:10:40.333Z,97951.28
2023-10-29T18:12:44.474Z,97972.00
2023-10-29T18:14:52.353Z,97961.00
2023-10-29T18:16:55.746Z,97969.53
2023-10-29T18:19:00.882Z,97972.03
2023-10-29T18:21:04.137Z,97984.59
2023-10-29T18:23:07.316Z,97973.97
2023-10-29T18:25:10.865Z,97981.84
2023-10-29T18:27:15.006Z,97980.97
2023-10-29T18:29:18.129Z,97988.00
2023-10-29T18:31:21.291Z,97997.69
2023-10-29T18:33:24.352Z,98004.84
2023-10-29T18:35:31.224Z,97996.19
2023-10-29T18:37:34.324Z,98009.94
2023-10-29T18:39:37.471Z,98007.34
2023-10-29T18:41:40.534Z,98019.16
2023-10-29T18:43:45.383Z,98026.75
2023-10-29T18:45:48.444Z,98029.28
2023-10-29T18:47:52.369Z,98030.59
2023-10-29T19:01:25.888Z,98041.03
2023-10-29T19:03:29.229Z,98040.22
2023-10-29T19:05:34.877Z,98060.94
2023-10-29T19:07:40.132Z,98056.81
2023-10-29T19:09:43.641Z,98055.59
2023-10-29T19:11:48.454Z,98057.81
2023-10-29T19:13:51.757Z,98059.47
2023-10-29T19:15:54.137Z,98071.03
2023-10-29T19:18:08.665Z,98070.25
2023-10-29T19:20:12.831Z,98065.41
2023-10-29T19:22:17.289Z,98082.41
2023-10-29T19:24:19.985Z,98077.13
2023-10-29T19:26:23.165Z,98089.19
2023-10-29T19:28:26.341Z,98091.41
2023-10-29T19:30:32.727Z,98089.66
2023-10-29T19:32:42.691Z,98090.69
2023-10-29T19:34:53.098Z,98109.72
2023-10-29T19:36:56.859Z,98114.59
2023-10-29T19:39:01.915Z,98112.97
2023-10-29T19:41:05.692Z,98110.38
2023-10-29T19:43:08.868Z,98109.69
2023-10-29T19:45:12.943Z,98116.94
2023-10-29T19:47:29.958Z,98123.19
2023-10-29T19:49:40.406Z,98133.22
2023-10-29T19:51:46.049Z,98139.38
2023-10-29T19:53:52.309Z,98142.03
2023-10-29T19:55:54.552Z,98143.63
2023-10-29T19:57:58.266Z,98139.69
2023-10-29T20:26:07.461Z,98153.97
2023-10-29T20:33:28.588Z,98166.06
2023-10-29T20:35:53.966Z,98175.53
2023-10-29T20:41:08.030Z,98179.66
2023-10-29T20:44:04.813Z,98185.34
2023-10-29T20:46:33.819Z,98185.53
2023-10-29T20:49:02.827Z,98195.03
2023-10-29T20:51:18.679Z,98185.88
2023-10-29T20:53:24.422Z,98197.66
2023-10-29T20:55:34.050Z,98197.84
2023-10-29T20:57:40.528Z,98204.19
2023-10-29T20:59:55.232Z,98196.03
2023-10-29T21:02:26.242Z,98201.75
2023-10-29T21:07:33.241Z,98204.56
2023-10-29T21:09:36.805Z,98214.59
2023-10-29T21:11:45.870Z,98211.28
2023-10-29T21:13:56.836Z,98203.03
2023-10-29T21:16:21.294Z,98208.72
2023-10-29T21:18:30.768Z,98219.56
2023-10-29T21:20:34.342Z,98212.34
2023-10-29T21:23:27.387Z,98211.34
2023-10-29T21:25:36.096Z,98216.03
2023-10-29T21:27:40.191Z,98219.56
2023-10-29T21:29:46.674Z,98225.84
2023-10-29T21:31:57.336Z,98225.66
2023-10-29T21:34:06.265Z,98215.25
2023-10-29T21:36:11.614Z,98224.31
2023-10-29T21:38:19.259Z,98220.50
2023-10-29T21:40:36.144Z,98214.56
2023-10-29T21:42:44.319Z,98214.13
2023-10-29T21:45:00.708Z,98222.25
2023-10-29T21:47:23.224Z,98215.34
2023-10-29T21:49:53.778Z,98217.94
2023-10-29T21:51:58.353Z,98224.00
2023-10-29T21:54:11.538Z,98232.94
2023-10-29T21:56:16.367Z,98233.66
2023-10-29T21:58:29.455Z,98229.41
2023-10-29T22:00:57.955Z,98235.25
2023-10-29T22:03:19.702Z,98254.56
2023-10-29T22:05:25.428Z,98235.03
2023-10-29T22:08:03.516Z,98242.88
2023-10-29T22:10:10.200Z,98245.09
2023-10-29T22:12:21.526Z,98257.31
2023-10-29T22:14:35.077Z,98255.16
2023-10-29T22:16:44.578Z,98265.63
2023-10-29T22:19:23.055Z,98271.03
2023-10-29T22:24:01.885Z,98284.34
2023-10-29T22:26:35.196Z,98286.94
2023-10-29T22:28:44.762Z,98282.56
2023-10-29T22:31:01.953Z,98285.81
2023-10-29T22:33:05.536Z,98287.38
2023-10-29T22:35:12.213Z,98291.19
2023-10-29T22:37:17.358Z,98293.31
2023-10-29T22:39:28.335Z,98285.78
2023-10-29T22:41:31.667Z,98282.72
2023-10-29T22:43:41.673Z,98288.00
2023-10-29T22:45:48.971Z,98282.94
2023-10-29T22:47:51.881Z,98286.03
2023-10-29T22:49:57.174Z,98296.16
2023-10-29T22:52:14.185Z,98301.84
2023-10-29T22:54:19.262Z,98294.03
2023-10-29T22:56:24.629Z,98286.94
2023-10-29T22:58:32.645Z,98296.97
2023-10-29T23:00:35.936Z,98294.59
2023-10-29T23:02:42.477Z,98284.47
2023-10-29T23:04:50.192Z,98288.84
2023-10-29T23:06:53.773Z,98283.22
2023-10-29T23:09:04.759Z,98284.59
2023-10-29T23:11:21.159Z,98281.16
2023-10-29T23:13:25.959Z,98282.69
2023-10-29T23:15:35.213Z,98292.16
2023-10-29T23:17:39.317Z,98288.59
2023-10-29T23:19:42.517Z,98279.56
2023-10-29T23:21:49.506Z,98289.72
2023-10-29T23:24:10.458Z,98285.38
2023-10-29T23:26:19.056Z,98297.34
2023-10-29T23:28:37.402Z,98298.53
2023-10-29T23:30:50.894Z,98292.50
2023-10-29T23:35:20.069Z,98287.13
2023-10-29T23:37:25.318Z,98295.09
2023-10-29T23:39:34.387Z,98301.38
2023-10-29T23:41:39.101Z,98305.38
2023-10-29T23:43:47.193Z,98323.03
2023-10-29T23:45:57.314Z,98311.66
2023-10-29T23:48:03.564Z,98302.94
2023-10-29T23:50:11.887Z,98313.22
2023-10-29T23:52:19.535Z,98316.13
2023-10-29T23:54:47.666Z,98314.31
2023-10-29T23:56:54.621Z,98309.41
2023-10-29T23:58:57.918Z,98313.72
